createdAt,value
2019-01-12T00:00:54.164Z,7.73
2019-01-12T00:03:22.802Z,7.73
2019-01-12T00:05:51.507Z,7.67
2019-01-12T00:08:20.110Z,8.47
2019-01-12T00:10:48.750Z,9.40
2019-01-12T00:13:17.429Z,9.63
2019-01-12T00:15:46.110Z,9.13
2019-01-12T00:18:14.699Z,9.30
2019-01-12T00:20:43.315Z,8.80
2019-01-12T00:23:11.947Z,8.67
2019-01-12T00:25:40.503Z,9.40
2019-01-12T00:28:09.091Z,9.47
2019-01-12T00:30:37.717Z,9.53
2019-01-12T00:33:06.304Z,9.70
2019-01-12T00:35:35.102Z,9.37
2019-01-12T00:38:03.735Z,7.00
2019-01-12T00:40:32.353Z,7.87
2019-01-12T00:43:01.170Z,7.20
2019-01-12T00:45:29.774Z,7.93
2019-01-12T00:48:17.669Z,8.30
2019-01-12T00:50:46.260Z,9.03
2019-01-12T00:53:14.928Z,8.07
2019-01-12T00:55:43.677Z,7.43
2019-01-12T00:58:12.173Z,6.90
2019-01-12T01:00:40.894Z,6.90
2019-01-12T01:03:09.482Z,7.90
2019-01-12T01:05:38.028Z,7.50
2019-01-12T01:08:07.158Z,7.67
2019-01-12T01:10:35.812Z,6.50
2019-01-12T01:13:04.426Z,7.70
2019-01-12T01:15:33.295Z,8.83
2019-01-12T01:18:02.084Z,6.50
2019-01-12T01:20:30.794Z,6.63
2019-01-12T01:22:59.445Z,7.50
2019-01-12T01:25:28.208Z,7.13
2019-01-12T01:27:56.806Z,6.50
2019-01-12T01:30:25.416Z,7.07
2019-01-12T01:32:54.142Z,7.10
2019-01-12T01:35:22.978Z,6.30
2019-01-12T01:37:51.824Z,6.70
2019-01-12T01:40:21.903Z,6.87
2019-01-12T01:42:50.481Z,6.90
2019-01-12T01:45:19.342Z,6.70
2019-01-12T01:47:47.914Z,6.67
2019-01-12T01:50:16.864Z,6.60
2019-01-12T01:52:45.698Z,6.70
2019-01-12T01:55:14.639Z,6.93
2019-01-12T01:57:43.350Z,6.73
2019-01-12T02:00:15.283Z,6.60
2019-01-12T02:02:43.867Z,6.23
2019-01-12T02:05:13.068Z,6.17
2019-01-12T02:07:41.749Z,6.63
2019-01-12T02:10:16.683Z,6.57
2019-01-12T02:12:45.445Z,6.07
2019-01-12T02:15:16.706Z,6.73
2019-01-12T02:17:45.477Z,5.93
2019-01-12T02:20:15.113Z,6.30
2019-01-12T02:22:43.696Z,6.87
2019-01-12T02:25:13.082Z,6.27
2019-01-12T02:27:41.699Z,6.20
2019-01-12T02:30:16.293Z,6.60
2019-01-12T02:32:44.868Z,5.63
2019-01-12T02:35:13.579Z,5.70
2019-01-12T02:37:42.264Z,6.10
2019-01-12T02:40:11.099Z,6.83
2019-01-12T02:42:39.800Z,6.07
2019-01-12T02:45:11.380Z,7.17
2019-01-12T02:47:40.050Z,7.67
2019-01-12T02:50:10.941Z,6.13
2019-01-12T02:52:39.657Z,6.40
2019-01-12T02:55:29.102Z,6.30
2019-01-12T02:57:57.688Z,7.00
2019-01-12T03:00:26.301Z,7.10
2019-01-12T03:02:55.353Z,6.60
2019-01-12T03:05:23.928Z,7.53
2019-01-12T03:07:52.627Z,8.07
2019-01-12T03:10:21.305Z,7.00
2019-01-12T03:12:49.931Z,6.30
2019-01-12T03:15:19.131Z,7.10
2019-01-12T03:17:47.850Z,7.20
2019-01-12T03:20:16.845Z,6.07
2019-01-12T03:22:45.500Z,6.43
2019-01-12T03:25:18.632Z,6.27
2019-01-12T03:27:45.206Z,6.13
2019-01-12T03:30:15.689Z,5.57
2019-01-12T03:32:44.377Z,5.83
2019-01-12T03:35:13.544Z,6.03
2019-01-12T03:37:42.641Z,6.13
2019-01-12T03:40:14.560Z,5.67
2019-01-12T03:42:43.317Z,5.97
2019-01-12T03:45:14.914Z,5.93
2019-01-12T03:47:43.528Z,5.10
2019-01-12T03:50:14.766Z,4.90
2019-01-12T03:52:43.441Z,4.97
2019-01-12T03:55:12.741Z,5.60
2019-01-12T03:57:41.332Z,5.73
2019-01-12T04:00:13.218Z,4.90
2019-01-12T04:02:41.873Z,5.47
2019-01-12T04:05:10.647Z,5.67
2019-01-12T04:07:39.194Z,5.20
2019-01-12T04:10:10.647Z,5.63
2019-01-12T04:12:39.287Z,5.07
2019-01-12T04:15:11.163Z,5.80
2019-01-12T04:17:39.829Z,5.67
2019-01-12T04:20:14.199Z,5.87
2019-01-12T04:22:42.806Z,5.97
2019-01-12T04:25:11.993Z,6.00
2019-01-12T04:27:40.630Z,5.70
2019-01-12T04:30:12.162Z,5.93
2019-01-12T04:32:40.818Z,5.57
2019-01-12T04:35:09.555Z,6.20
2019-01-12T04:37:38.163Z,7.43
2019-01-12T04:40:09.794Z,6.13
2019-01-12T04:42:38.407Z,6.20
2019-01-12T04:45:08.905Z,6.47
2019-01-12T04:47:37.494Z,5.87
2019-01-12T04:50:09.298Z,6.00
2019-01-12T04:52:38.150Z,6.07
2019-01-12T04:55:07.364Z,6.43
2019-01-12T04:57:35.990Z,6.07
2019-01-12T05:00:07.888Z,6.10
2019-01-12T05:02:36.747Z,5.87
2019-01-12T05:05:06.027Z,5.53
2019-01-12T05:07:34.710Z,6.17
2019-01-12T05:10:03.778Z,6.20
2019-01-12T05:12:32.311Z,6.60
2019-01-12T05:15:01.099Z,6.23
2019-01-12T05:17:29.720Z,6.27
2019-01-12T05:19:58.535Z,6.00
2019-01-12T05:22:27.119Z,5.83
2019-01-12T05:24:55.870Z,6.70
2019-01-12T05:27:24.539Z,6.93
2019-01-12T05:29:53.157Z,6.37
2019-01-12T05:32:21.806Z,6.13
2019-01-12T05:34:50.570Z,6.73
2019-01-12T05:37:20.320Z,5.93
2019-01-12T05:39:48.846Z,5.87
2019-01-12T05:42:17.637Z,6.03
2019-01-12T05:44:46.202Z,6.03
2019-01-12T05:47:14.920Z,6.23
2019-01-12T05:49:43.548Z,6.27
2019-01-12T05:52:13.837Z,5.90
2019-01-12T05:54:42.563Z,5.80
2019-01-12T05:57:11.194Z,5.10
2019-01-12T05:59:39.797Z,5.90
2019-01-12T06:02:08.458Z,6.00
2019-01-12T06:04:37.042Z,5.80
2019-01-12T06:07:05.666Z,6.07
2019-01-12T06:09:34.297Z,5.47
2019-01-12T06:12:02.885Z,6.17
2019-01-12T06:14:31.438Z,6.43
2019-01-12T06:17:00.154Z,5.87
2019-01-12T06:19:28.690Z,6.03
2019-01-12T06:21:57.287Z,6.77
2019-01-12T06:24:26.037Z,5.67
2019-01-12T06:26:54.826Z,6.60
2019-01-12T06:29:23.440Z,6.40
2019-01-12T06:31:52.001Z,5.70
2019-01-12T06:34:20.577Z,6.10
2019-01-12T06:36:49.620Z,5.73
2019-01-12T06:39:18.367Z,6.47
2019-01-12T06:41:47.186Z,5.97
2019-01-12T06:44:15.886Z,6.07
2019-01-12T06:46:44.832Z,6.43
2019-01-12T06:49:13.627Z,5.60
2019-01-12T06:51:42.310Z,5.73
2019-01-12T06:54:10.895Z,6.30
2019-01-12T06:56:39.450Z,6.57
2019-01-12T06:59:27.378Z,5.23
2019-01-12T07:01:55.926Z,5.53
2019-01-12T07:04:24.527Z,6.10
2019-01-12T07:06:53.082Z,4.80
2019-01-12T07:09:21.943Z,6.47
2019-01-12T07:11:51.054Z,6.47
2019-01-12T07:14:19.550Z,5.67
2019-01-12T07:16:49.963Z,5.80
2019-01-12T07:19:18.971Z,5.50
2019-01-12T07:21:47.674Z,5.97
2019-01-12T07:24:16.312Z,6.30
2019-01-12T07:26:45.078Z,5.87
2019-01-12T07:29:13.669Z,6.10
2019-01-12T07:31:42.249Z,5.70
2019-01-12T07:34:10.903Z,5.90
2019-01-12T07:36:40.091Z,6.00
2019-01-12T07:39:08.790Z,6.37
2019-01-12T07:41:37.402Z,6.50
2019-01-12T07:44:06.091Z,5.70
2019-01-12T07:46:34.923Z,5.90
2019-01-12T07:49:03.656Z,6.03
2019-01-12T07:51:32.252Z,5.80
2019-01-12T07:54:00.801Z,4.77
2019-01-12T07:56:29.578Z,4.70
2019-01-12T07:58:58.185Z,4.90
2019-01-12T08:01:26.921Z,4.80
2019-01-12T08:03:55.623Z,5.13
2019-01-12T08:06:24.608Z,5.33
2019-01-12T08:08:53.161Z,4.73
2019-01-12T08:11:21.939Z,4.83
2019-01-12T08:13:52.298Z,5.20
2019-01-12T08:16:21.057Z,4.50
2019-01-12T08:18:49.642Z,5.13
2019-01-12T08:21:18.402Z,5.00
2019-01-12T08:23:47.044Z,5.50
2019-01-12T08:26:34.962Z,7.17
2019-01-12T08:29:03.629Z,5.77
2019-01-12T08:31:32.472Z,6.20
2019-01-12T08:34:03.567Z,5.37
2019-01-12T08:36:32.348Z,6.83
2019-01-12T08:39:00.962Z,9.50
2019-01-12T08:41:30.023Z,8.57
2019-01-12T08:43:58.691Z,6.37
2019-01-12T08:46:27.446Z,5.63
2019-01-12T08:48:56.201Z,5.53
2019-01-12T08:51:25.652Z,5.00
2019-01-12T08:53:54.241Z,5.10
2019-01-12T08:56:23.043Z,5.07
2019-01-12T08:58:51.690Z,4.13
2019-01-12T09:01:20.582Z,4.47
2019-01-12T09:03:49.106Z,4.60
2019-01-12T09:06:17.794Z,4.70
2019-01-12T09:08:46.398Z,4.30
2019-01-12T09:11:14.986Z,4.93
2019-01-12T09:13:43.642Z,4.83
2019-01-12T09:16:14.364Z,5.03
2019-01-12T09:18:43.713Z,4.97
2019-01-12T09:21:12.493Z,4.40
2019-01-12T09:23:41.066Z,4.40
2019-01-12T09:26:09.907Z,4.57
2019-01-12T09:28:38.555Z,4.83
2019-01-12T09:31:07.142Z,5.30
2019-01-12T09:33:37.198Z,4.87
2019-01-12T09:36:06.003Z,5.07
2019-01-12T09:38:34.537Z,4.63
2019-01-12T09:41:03.279Z,4.43
2019-01-12T09:43:31.992Z,4.17
2019-01-12T09:46:19.971Z,4.30
2019-01-12T09:48:48.587Z,4.60
2019-01-12T09:51:17.187Z,4.13
2019-01-12T09:53:45.790Z,5.13
2019-01-12T09:56:15.127Z,4.20
2019-01-12T09:58:43.696Z,4.47
2019-01-12T10:01:13.746Z,3.47
2019-01-12T10:03:42.367Z,4.43
2019-01-12T10:06:10.982Z,4.27
2019-01-12T10:08:39.698Z,4.73
2019-01-12T10:11:08.527Z,3.73
2019-01-12T10:13:37.163Z,4.47
2019-01-12T10:16:05.848Z,4.73
2019-01-12T10:18:34.506Z,4.57
2019-01-12T10:21:03.822Z,4.57
2019-01-12T10:23:32.430Z,4.70
2019-01-12T10:26:01.111Z,5.90
2019-01-12T10:28:29.643Z,5.50
2019-01-12T10:30:58.270Z,5.40
2019-01-12T10:33:26.862Z,4.70
2019-01-12T10:35:55.479Z,4.50
2019-01-12T10:38:24.474Z,4.10
2019-01-12T10:41:12.417Z,4.40
2019-01-12T10:43:41.071Z,4.37
2019-01-12T10:46:10.122Z,4.40
2019-01-12T10:48:38.675Z,4.60
2019-01-12T10:51:07.340Z,4.97
2019-01-12T10:53:36.046Z,5.50
2019-01-12T10:56:05.181Z,5.57
2019-01-12T10:58:33.902Z,5.37
2019-01-12T11:01:02.593Z,3.70
2019-01-12T11:03:31.472Z,5.07
2019-01-12T11:06:00.148Z,4.80
2019-01-12T11:08:29.017Z,3.97
2019-01-12T11:10:57.593Z,4.63
2019-01-12T11:13:26.339Z,4.60
2019-01-12T11:15:56.511Z,5.33
2019-01-12T11:18:25.491Z,4.67
2019-01-12T11:20:54.154Z,4.53
2019-01-12T11:23:23.019Z,4.63
2019-01-12T11:25:51.662Z,4.83
2019-01-12T11:28:20.214Z,5.23
2019-01-12T11:30:48.920Z,5.37
2019-01-12T11:33:17.547Z,4.67
2019-01-12T11:35:46.224Z,4.63
2019-01-12T11:38:15.903Z,4.90
2019-01-12T11:40:44.684Z,5.30
2019-01-12T11:43:13.390Z,5.67
2019-01-12T11:45:41.969Z,5.07
2019-01-12T11:48:10.598Z,5.17
2019-01-12T11:50:39.264Z,5.60
2019-01-12T11:53:07.812Z,4.80
2019-01-12T11:55:36.399Z,5.80
2019-01-12T11:58:05.662Z,5.77
2019-01-12T12:00:34.495Z,6.47
2019-01-12T12:03:03.313Z,5.60
2019-01-12T12:05:31.999Z,5.30
2019-01-12T12:08:00.735Z,4.97
2019-01-12T12:10:29.421Z,5.03
2019-01-12T12:12:58.159Z,5.10
2019-01-12T12:15:26.795Z,4.90
2019-01-12T12:17:56.319Z,5.60
2019-01-12T12:20:26.011Z,5.70
2019-01-12T12:22:54.824Z,4.63
2019-01-12T12:25:23.524Z,5.10
2019-01-12T12:27:52.281Z,5.40
2019-01-12T12:30:40.684Z,5.47
2019-01-12T12:33:09.346Z,5.80
2019-01-12T12:35:39.169Z,5.20
2019-01-12T12:38:08.403Z,5.37
2019-01-12T12:40:36.979Z,5.30
2019-01-12T12:43:05.739Z,5.60
2019-01-12T12:45:34.472Z,5.13
2019-01-12T12:48:03.323Z,5.70
2019-01-12T12:50:31.987Z,6.20
2019-01-12T12:53:00.956Z,5.70
2019-01-12T12:55:29.710Z,5.77
2019-01-12T12:57:59.288Z,5.60
2019-01-12T13:00:30.026Z,5.47
2019-01-12T13:02:58.668Z,6.40
2019-01-12T13:05:27.383Z,5.10
2019-01-12T13:08:00.621Z,4.77
2019-01-12T13:10:29.683Z,5.23
2019-01-12T13:12:58.330Z,5.33
2019-01-12T13:15:27.179Z,5.90
2019-01-12T13:17:56.316Z,4.80
2019-01-12T13:20:25.032Z,4.40
2019-01-12T13:22:53.616Z,4.93
2019-01-12T13:25:22.437Z,5.43
2019-01-12T13:27:51.270Z,5.27
2019-01-12T13:30:22.062Z,6.23
2019-01-12T13:32:51.086Z,6.73
2019-01-12T13:35:19.742Z,6.80
2019-01-12T13:37:48.763Z,5.83
2019-01-12T13:40:22.967Z,5.43
2019-01-12T13:42:51.582Z,4.60
2019-01-12T13:45:22.819Z,5.07
2019-01-12T13:47:52.330Z,5.30
2019-01-12T13:50:23.535Z,5.30
2019-01-12T13:52:52.543Z,6.37
2019-01-12T13:55:21.247Z,6.90
2019-01-12T13:57:50.084Z,6.13
2019-01-12T14:00:24.550Z,6.23
2019-01-12T14:02:53.258Z,6.33
2019-01-12T14:05:26.591Z,5.83
2019-01-12T14:07:56.466Z,5.07
2019-01-12T14:10:26.028Z,5.37
2019-01-12T14:12:55.252Z,5.17
2019-01-12T14:15:23.870Z,4.83
2019-01-12T14:17:52.566Z,5.37
2019-01-12T14:20:24.107Z,5.27
2019-01-12T14:22:52.742Z,5.40
2019-01-12T14:25:21.305Z,4.87
2019-01-12T14:27:54.220Z,4.63
2019-01-12T14:30:21.684Z,5.03
2019-01-12T14:32:50.775Z,5.33
2019-01-12T14:35:20.214Z,4.43
2019-01-12T14:37:49.838Z,4.97
2019-01-12T14:40:19.561Z,5.20
2019-01-12T14:42:48.547Z,5.13
2019-01-12T14:45:23.218Z,4.53
2019-01-12T14:47:51.869Z,4.73
2019-01-12T14:50:20.629Z,4.40
2019-01-12T14:52:50.659Z,6.20
2019-01-12T14:55:21.074Z,5.53
2019-01-12T14:57:49.962Z,5.80
2019-01-12T15:00:24.259Z,5.07
2019-01-12T15:02:52.902Z,5.23
2019-01-12T15:05:23.761Z,4.83
2019-01-12T15:07:52.750Z,4.57
2019-01-12T15:10:21.846Z,4.83
2019-01-12T15:12:51.474Z,4.17
2019-01-12T15:15:20.467Z,4.57
2019-01-12T15:17:49.466Z,4.73
2019-01-12T15:20:21.150Z,4.70
2019-01-12T15:22:50.040Z,3.90
2019-01-12T15:25:19.362Z,5.37
2019-01-12T15:27:48.730Z,4.20
2019-01-12T15:30:19.859Z,5.00
2019-01-12T15:32:48.519Z,4.90
2019-01-12T15:35:18.154Z,5.10
2019-01-12T15:37:46.789Z,4.50
2019-01-12T15:40:18.262Z,5.13
2019-01-12T15:42:46.894Z,4.53
2019-01-12T15:45:19.042Z,4.30
2019-01-12T15:47:48.038Z,4.63
2019-01-12T15:50:21.669Z,4.30
2019-01-12T15:52:50.361Z,4.37
2019-01-12T15:55:19.044Z,4.67
2019-01-12T15:57:47.849Z,4.80
2019-01-12T16:00:18.992Z,4.40
2019-01-12T16:02:47.691Z,3.70
2019-01-12T16:05:16.472Z,3.73
2019-01-12T16:07:45.117Z,4.43
2019-01-12T16:10:15.427Z,3.93
2019-01-12T16:12:44.018Z,3.70
2019-01-12T16:15:18.940Z,3.90
2019-01-12T16:17:47.626Z,3.87
2019-01-12T16:20:22.141Z,4.40
2019-01-12T16:22:50.794Z,3.90
2019-01-12T16:25:19.438Z,3.60
2019-01-12T16:27:47.978Z,4.03
2019-01-12T16:30:19.006Z,4.37
2019-01-12T16:32:48.268Z,5.20
2019-01-12T16:35:18.254Z,5.03
2019-01-12T16:37:47.230Z,4.50
2019-01-12T16:40:21.805Z,4.00
2019-01-12T16:42:50.461Z,4.47
2019-01-12T16:45:19.151Z,4.00
2019-01-12T16:47:47.780Z,3.60
2019-01-12T16:50:16.523Z,4.40
2019-01-12T16:52:45.274Z,3.73
2019-01-12T16:55:16.018Z,4.03
2019-01-12T16:57:45.014Z,4.10
2019-01-12T17:00:28.233Z,3.90
2019-01-12T17:02:57.108Z,3.87
2019-01-12T17:05:26.174Z,4.33
2019-01-12T17:07:54.881Z,4.27
2019-01-12T17:10:23.754Z,4.50
2019-01-12T17:12:53.154Z,4.17
2019-01-12T17:15:23.075Z,4.53
2019-01-12T17:17:51.866Z,4.40
2019-01-12T17:20:25.342Z,4.77
2019-01-12T17:22:57.041Z,5.03
2019-01-12T17:25:26.841Z,5.37
2019-01-12T17:27:55.671Z,5.37
2019-01-12T17:30:28.762Z,4.60
2019-01-12T17:32:57.301Z,5.07
2019-01-12T17:35:25.904Z,4.63
2019-01-12T17:37:54.507Z,4.93
2019-01-12T17:40:23.359Z,5.13
2019-01-12T17:42:52.150Z,4.80
2019-01-12T17:45:23.240Z,4.53
2019-01-12T17:47:51.960Z,4.70
2019-01-12T17:50:22.826Z,4.93
2019-01-12T17:52:51.445Z,5.03
2019-01-12T17:55:22.154Z,5.10
2019-01-12T17:57:50.719Z,5.17
2019-01-12T18:00:25.896Z,4.97
2019-01-12T18:02:54.590Z,4.63
2019-01-12T18:05:23.223Z,4.70
2019-01-12T18:07:51.986Z,4.17
2019-01-12T18:10:20.605Z,4.87
2019-01-12T18:12:49.354Z,4.20
2019-01-12T18:15:18.144Z,4.97
2019-01-12T18:17:46.731Z,4.90
2019-01-12T18:20:17.412Z,4.97
2019-01-12T18:22:46.430Z,4.70
2019-01-12T18:25:16.746Z,4.97
2019-01-12T18:27:49.008Z,4.87
2019-01-12T18:30:23.322Z,4.40
2019-01-12T18:32:51.982Z,5.30
2019-01-12T18:35:23.255Z,4.80
2019-01-12T18:38:10.920Z,5.70
2019-01-12T18:40:39.690Z,6.27
2019-01-12T18:43:08.614Z,5.40
2019-01-12T18:45:37.273Z,5.33
2019-01-12T18:48:07.885Z,4.70
2019-01-12T18:50:36.472Z,4.50
2019-01-12T18:53:05.184Z,5.60
2019-01-12T18:55:34.719Z,4.67
2019-01-12T18:58:03.385Z,5.43
2019-01-12T19:00:32.205Z,5.40
2019-01-12T19:03:21.010Z,5.63
2019-01-12T19:05:49.739Z,4.90
2019-01-12T19:08:23.880Z,8.07
2019-01-12T19:10:55.350Z,6.40
2019-01-12T19:13:23.892Z,5.23
2019-01-12T19:15:52.875Z,4.87
2019-01-12T19:18:27.213Z,4.93
2019-01-12T19:20:55.981Z,5.63
2019-01-12T19:23:24.567Z,5.43
2019-01-12T19:25:53.228Z,8.63
2019-01-12T19:28:21.824Z,6.40
2019-01-12T19:30:50.621Z,5.13
2019-01-12T19:33:19.270Z,4.63
2019-01-12T19:35:47.824Z,7.00
2019-01-12T19:38:16.772Z,5.10
2019-01-12T19:40:45.391Z,5.40
2019-01-12T19:43:14.007Z,5.23
2019-01-12T19:45:42.720Z,5.03
2019-01-12T19:48:11.413Z,5.03
2019-01-12T19:50:40.002Z,5.57
2019-01-12T19:53:08.655Z,5.40
2019-01-12T19:55:37.566Z,5.07
2019-01-12T19:58:06.335Z,4.77
2019-01-12T20:00:35.242Z,5.20
2019-01-12T20:03:03.862Z,4.77
2019-01-12T20:05:32.689Z,5.00
2019-01-12T20:08:01.439Z,4.33
2019-01-12T20:10:30.058Z,5.60
2019-01-12T20:12:58.642Z,5.17
2019-01-12T20:15:27.398Z,4.43
2019-01-12T20:17:55.959Z,4.17
2019-01-12T20:20:24.702Z,4.53
2019-01-12T20:22:53.509Z,3.83
2019-01-12T20:25:25.266Z,4.13
2019-01-12T20:27:53.950Z,4.20
2019-01-12T20:30:25.611Z,4.43
2019-01-12T20:33:14.774Z,4.00
2019-01-12T20:35:58.646Z,3.90
2019-01-12T20:38:42.339Z,4.93
2019-01-12T20:41:14.042Z,3.97
2019-01-12T20:44:01.856Z,4.23
2019-01-12T20:46:39.189Z,4.23
2019-01-12T20:49:14.187Z,4.40
2019-01-12T20:51:57.855Z,4.17
2019-01-12T20:54:38.066Z,3.63
2019-01-12T20:57:12.389Z,3.57
2019-01-12T20:59:55.782Z,3.73
2019-01-12T21:02:52.803Z,3.53
2019-01-12T21:05:34.359Z,4.27
2019-01-12T21:08:32.831Z,3.80
2019-01-12T21:11:07.490Z,3.17
2019-01-12T21:13:48.334Z,3.00
2019-01-12T21:16:20.322Z,3.90
2019-01-12T21:18:49.126Z,3.40
2019-01-12T21:21:37.031Z,3.43
2019-01-12T21:24:06.151Z,3.07
2019-01-12T21:26:34.810Z,3.67
2019-01-12T21:29:03.733Z,3.43
2019-01-12T21:31:32.361Z,3.50
2019-01-12T21:34:00.955Z,4.37
2019-01-12T21:36:29.579Z,3.37
2019-01-12T21:39:07.691Z,3.00
2019-01-12T21:41:36.231Z,3.37
2019-01-12T21:44:05.369Z,2.57
2019-01-12T21:46:33.933Z,2.63
2019-01-12T21:49:02.738Z,2.63
2019-01-12T21:51:31.326Z,2.60
2019-01-12T21:54:00.175Z,2.70
2019-01-12T21:56:28.803Z,3.27
2019-01-12T21:58:57.586Z,2.53
2019-01-12T22:01:26.284Z,2.50
2019-01-12T22:04:14.296Z,2.43
2019-01-12T22:06:42.848Z,2.73
2019-01-12T22:09:11.489Z,2.97
2019-01-12T22:11:40.429Z,2.50
2019-01-12T22:14:09.130Z,3.07
2019-01-12T22:16:37.937Z,2.93
2019-01-12T22:19:06.791Z,3.13
2019-01-12T22:21:35.681Z,2.50
2019-01-12T22:24:04.371Z,2.83
2019-01-12T22:26:32.989Z,2.30
2019-01-12T22:29:01.676Z,2.80
2019-01-12T22:31:30.279Z,2.53
2019-01-12T22:33:59.023Z,2.40
2019-01-12T22:36:27.656Z,2.60
2019-01-12T22:38:56.239Z,2.70
2019-01-12T22:41:44.217Z,2.30
2019-01-12T22:44:13.048Z,2.40
2019-01-12T22:46:41.650Z,2.50
2019-01-12T22:49:10.370Z,2.57
2019-01-12T22:51:39.075Z,2.90
2019-01-12T22:54:07.793Z,2.50
2019-01-12T22:56:36.404Z,2.63
2019-01-12T22:59:05.022Z,2.00
2019-01-12T23:01:37.189Z,1.90
2019-01-12T23:04:05.762Z,2.30
2019-01-12T23:06:34.504Z,1.93
2019-01-12T23:09:04.693Z,2.00
2019-01-12T23:11:33.424Z,1.93
2019-01-12T23:14:02.202Z,1.80
2019-01-12T23:16:30.783Z,2.10
2019-01-12T23:18:59.510Z,1.90
2019-01-12T23:21:28.343Z,1.87
2019-01-12T23:23:56.900Z,2.20
2019-01-12T23:26:25.542Z,2.20
2019-01-12T23:28:54.099Z,1.70
2019-01-12T23:31:22.826Z,2.37
2019-01-12T23:33:51.517Z,1.67
2019-01-12T23:36:20.066Z,2.00
2019-01-12T23:38:48.722Z,2.87
2019-01-12T23:41:17.645Z,2.00
2019-01-12T23:43:46.450Z,1.73
2019-01-12T23:46:14.977Z,2.17
2019-01-12T23:48:43.686Z,1.83
2019-01-12T23:51:12.341Z,1.57
2019-01-12T23:53:40.942Z,2.07
2019-01-12T23:56:09.558Z,2.10
2019-01-12T23:58:38.126Z,2.00
